createdAt,value
2018-12-04T00:00:24.937Z,99584.25
2018-12-04T00:02:53.196Z,99584.95
2018-12-04T00:05:21.371Z,99586.50
2018-12-04T00:07:49.465Z,99589.03
2018-12-04T00:10:18.009Z,99586.50
2018-12-04T00:12:46.652Z,99588.84
2018-12-04T00:15:14.208Z,99587.00
2018-12-04T00:17:41.810Z,99594.17
2018-12-04T00:20:09.468Z,99590.48
2018-12-04T00:22:37.035Z,99595.94
2018-12-04T00:25:05.276Z,99599.30
2018-12-04T00:27:33.106Z,99597.77
2018-12-04T00:30:00.682Z,99599.42
2018-12-04T00:32:28.252Z,99606.08
2018-12-04T00:34:55.791Z,99606.91
2018-12-04T00:37:23.393Z,99613.14
2018-12-04T00:39:50.994Z,99615.30
2018-12-04T00:42:18.889Z,99620.63
2018-12-04T00:44:46.441Z,99626.89
2018-12-04T00:47:13.977Z,99622.11
2018-12-04T00:49:41.553Z,99622.74
2018-12-04T00:52:09.090Z,99621.95
2018-12-04T00:54:36.649Z,99630.56
2018-12-04T00:57:04.253Z,99636.17
2018-12-04T00:59:31.783Z,99639.78
2018-12-04T01:01:59.360Z,99642.26
2018-12-04T01:04:27.245Z,99649.64
2018-12-04T01:06:54.796Z,99654.59
2018-12-04T01:09:22.358Z,99652.75
2018-12-04T01:11:49.954Z,99654.59
2018-12-04T01:14:17.654Z,99649.16
2018-12-04T01:16:45.278Z,99663.23
2018-12-04T01:19:12.845Z,99650.94
2018-12-04T01:21:40.375Z,99652.07
2018-12-04T01:24:08.246Z,99655.65
2018-12-04T01:26:35.840Z,99658.31
2018-12-04T01:29:03.420Z,99659.67
2018-12-04T01:31:30.981Z,99654.95
2018-12-04T01:33:58.553Z,99669.28
2018-12-04T01:36:26.132Z,99664.47
2018-12-04T01:38:53.686Z,99669.41
2018-12-04T01:41:21.372Z,99662.53
2018-12-04T01:43:48.920Z,99669.62
2018-12-04T01:46:16.900Z,99665.31
2018-12-04T01:48:44.502Z,99666.58
2018-12-04T01:51:12.083Z,99661.02
2018-12-04T01:53:40.009Z,99662.67
2018-12-04T01:56:07.552Z,99663.62
2018-12-04T01:58:35.118Z,99665.58
2018-12-04T02:01:02.638Z,99665.98
2018-12-04T02:03:30.217Z,99665.09
2018-12-04T02:05:57.765Z,99666.52
2018-12-04T02:08:25.336Z,99675.77
2018-12-04T02:10:52.926Z,99671.96
2018-12-04T02:13:20.482Z,99666.53
2018-12-04T02:15:48.100Z,99667.47
2018-12-04T02:18:15.706Z,99662.65
2018-12-04T02:20:43.592Z,99662.34
2018-12-04T02:23:11.203Z,99664.17
2018-12-04T02:25:38.787Z,99673.00
2018-12-04T02:28:06.367Z,99677.82
2018-12-04T02:30:33.933Z,99679.78
2018-12-04T02:33:01.478Z,99683.67
2018-12-04T02:35:29.043Z,99685.81
2018-12-04T02:37:56.922Z,99688.16
2018-12-04T02:40:24.779Z,99703.84
2018-12-04T02:42:52.334Z,99703.89
2018-12-04T02:45:20.201Z,99703.89
2018-12-04T02:47:47.812Z,99709.73
2018-12-04T02:50:15.385Z,99715.88
2018-12-04T02:52:43.202Z,99719.19
2018-12-04T02:55:10.836Z,99723.62
2018-12-04T02:57:38.388Z,99723.93
2018-12-04T03:00:07.305Z,99738.49
2018-12-04T03:02:34.890Z,99737.86
2018-12-04T03:05:02.633Z,99742.42
2018-12-04T03:07:30.506Z,99753.08
2018-12-04T03:09:58.136Z,99772.98
2018-12-04T03:12:26.043Z,99785.48
2018-12-04T03:14:53.620Z,99788.17
2018-12-04T03:17:21.240Z,99797.44
2018-12-04T03:19:49.385Z,99809.82
2018-12-04T03:22:16.922Z,99814.77
2018-12-04T03:24:44.516Z,99815.54
2018-12-04T03:27:12.068Z,99820.10
2018-12-04T03:29:39.616Z,99837.16
2018-12-04T03:32:07.218Z,99842.98
2018-12-04T03:34:34.788Z,99859.45
2018-12-04T03:37:02.348Z,99864.87
2018-12-04T03:39:29.943Z,99867.05
2018-12-04T03:41:57.781Z,99879.91
2018-12-04T03:44:25.367Z,99891.12
2018-12-04T03:46:52.887Z,99893.60
2018-12-04T03:49:20.435Z,99887.35
2018-12-04T03:51:48.038Z,99904.72
2018-12-04T03:54:15.605Z,99919.45
2018-12-04T03:56:43.164Z,99916.66
2018-12-04T03:59:11.025Z,99934.23
2018-12-04T04:01:38.633Z,99941.34
2018-12-04T04:04:06.557Z,99948.69
2018-12-04T04:06:34.150Z,99956.25
2018-12-04T04:09:01.681Z,99959.78
2018-12-04T04:11:29.282Z,99965.75
2018-12-04T04:13:56.849Z,99973.78
2018-12-04T04:16:24.433Z,99976.08
2018-12-04T04:18:52.044Z,99982.86
2018-12-04T04:21:19.597Z,99984.26
2018-12-04T04:23:47.114Z,99998.94
2018-12-04T04:26:14.766Z,100003.30
2018-12-04T04:28:42.347Z,100009.52
2018-12-04T04:31:09.956Z,100017.86
2018-12-04T04:33:37.530Z,100022.06
2018-12-04T04:36:05.206Z,100023.69
2018-12-04T04:38:32.784Z,100034.55
2018-12-04T04:41:00.357Z,100041.38
2018-12-04T04:43:27.942Z,100049.47
2018-12-04T04:45:55.532Z,100057.77
2018-12-04T04:48:23.470Z,100058.31
2018-12-04T04:50:51.007Z,100070.07
2018-12-04T04:53:18.610Z,100078.73
2018-12-04T04:55:46.171Z,100076.41
2018-12-04T04:58:13.748Z,100090.56
2018-12-04T05:00:41.316Z,100093.73
2018-12-04T05:03:08.927Z,100094.70
2018-12-04T05:05:37.531Z,100107.36
2018-12-04T05:08:05.096Z,100113.69
2018-12-04T05:10:32.694Z,100123.98
2018-12-04T05:13:00.248Z,100132.81
2018-12-04T05:15:27.852Z,100137.31
2018-12-04T05:17:55.393Z,100144.62
2018-12-04T05:20:22.936Z,100154.31
2018-12-04T05:22:50.482Z,100152.51
2018-12-04T05:25:19.085Z,100170.30
2018-12-04T05:27:46.772Z,100175.45
2018-12-04T05:30:14.360Z,100185.95
2018-12-04T05:32:42.785Z,100185.72
2018-12-04T05:35:10.358Z,100191.22
2018-12-04T05:37:38.052Z,100200.38
2018-12-04T05:40:06.259Z,100206.02
2018-12-04T05:42:34.211Z,100211.00
2018-12-04T05:45:01.785Z,100226.31
2018-12-04T05:47:29.341Z,100224.99
2018-12-04T05:49:56.917Z,100237.30
2018-12-04T05:52:24.461Z,100239.63
2018-12-04T05:54:52.066Z,100240.28
2018-12-04T05:57:19.866Z,100246.11
2018-12-04T05:59:47.466Z,100256.80
2018-12-04T06:02:15.112Z,100268.55
2018-12-04T06:04:42.916Z,100270.87
2018-12-04T06:07:10.454Z,100286.67
2018-12-04T06:09:38.064Z,100290.22
2018-12-04T06:12:05.720Z,100302.14
2018-12-04T06:14:33.536Z,100304.34
2018-12-04T06:17:01.145Z,100309.17
2018-12-04T06:19:28.723Z,100319.77
2018-12-04T06:21:56.339Z,100330.45
2018-12-04T06:24:23.906Z,100342.42
2018-12-04T06:26:51.735Z,100341.59
2018-12-04T06:29:19.602Z,100343.42
2018-12-04T06:31:47.221Z,100349.74
2018-12-04T06:34:14.800Z,100352.74
2018-12-04T06:36:42.392Z,100372.02
2018-12-04T06:39:10.033Z,100361.71
2018-12-04T06:41:37.644Z,100380.74
2018-12-04T06:44:05.239Z,100389.73
2018-12-04T06:46:33.152Z,100393.21
2018-12-04T06:49:00.741Z,100398.70
2018-12-04T06:51:28.570Z,100413.36
2018-12-04T06:53:56.217Z,100416.02
2018-12-04T06:56:23.753Z,100422.86
2018-12-04T06:58:51.336Z,100427.48
2018-12-04T07:01:18.957Z,100441.28
2018-12-04T07:03:46.497Z,100448.96
2018-12-04T07:06:14.063Z,100455.44
2018-12-04T07:08:41.902Z,100465.22
2018-12-04T07:11:09.441Z,100474.69
2018-12-04T07:13:37.114Z,100489.81
2018-12-04T07:16:04.672Z,100491.36
2018-12-04T07:18:32.450Z,100497.67
2018-12-04T07:21:00.070Z,100501.97
2018-12-04T07:23:27.669Z,100506.62
2018-12-04T07:25:55.443Z,100506.48
2018-12-04T07:28:23.303Z,100519.44
2018-12-04T07:30:50.861Z,100526.42
2018-12-04T07:33:18.451Z,100535.40
2018-12-04T07:35:46.058Z,100542.37
2018-12-04T07:38:13.602Z,100544.38
2018-12-04T07:40:41.253Z,100554.00
2018-12-04T07:43:09.444Z,100558.66
2018-12-04T07:45:37.464Z,100574.91
2018-12-04T07:48:05.113Z,100572.96
2018-12-04T07:50:32.690Z,100586.25
2018-12-04T07:53:00.281Z,100597.55
2018-12-04T07:55:28.318Z,100601.85
2018-12-04T07:57:55.870Z,100611.50
2018-12-04T08:00:23.442Z,100616.16
2018-12-04T08:02:51.312Z,100617.33
2018-12-04T08:05:18.898Z,100625.78
2018-12-04T08:07:46.471Z,100634.91
2018-12-04T08:10:14.051Z,100642.25
2018-12-04T08:12:41.975Z,100649.06
2018-12-04T08:15:09.572Z,100649.06
2018-12-04T08:17:37.242Z,100658.86
2018-12-04T08:20:06.445Z,100656.03
2018-12-04T08:22:34.041Z,100666.66
2018-12-04T08:25:01.616Z,100668.33
2018-12-04T08:27:29.333Z,100674.66
2018-12-04T08:29:57.081Z,100679.28
2018-12-04T08:32:24.686Z,100687.28
2018-12-04T08:34:52.349Z,100696.58
2018-12-04T08:37:19.911Z,100697.91
2018-12-04T08:39:47.489Z,100714.20
2018-12-04T08:42:15.139Z,100714.85
2018-12-04T08:44:42.715Z,100719.52
2018-12-04T08:47:10.274Z,100725.64
2018-12-04T08:49:37.875Z,100721.00
2018-12-04T08:52:05.538Z,100739.47
2018-12-04T08:54:33.095Z,100744.45
2018-12-04T08:57:00.625Z,100745.43
2018-12-04T08:59:28.506Z,100763.66
2018-12-04T09:01:56.067Z,100764.02
2018-12-04T09:04:23.649Z,100767.31
2018-12-04T09:06:51.335Z,100770.43
2018-12-04T09:09:19.029Z,100779.91
2018-12-04T09:11:46.668Z,100782.76
2018-12-04T09:14:14.248Z,100790.61
2018-12-04T09:16:42.144Z,100797.62
2018-12-04T09:19:09.842Z,100808.91
2018-12-04T09:21:37.512Z,100820.55
2018-12-04T09:24:05.241Z,100822.25
2018-12-04T09:26:32.983Z,100827.90
2018-12-04T09:29:00.630Z,100831.58
2018-12-04T09:31:28.285Z,100845.55
2018-12-04T09:33:56.179Z,100836.92
2018-12-04T09:36:23.803Z,100839.89
2018-12-04T09:38:51.400Z,100842.40
2018-12-04T09:41:19.001Z,100848.21
2018-12-04T09:43:46.568Z,100850.20
2018-12-04T09:46:14.166Z,100846.06
2018-12-04T09:48:41.715Z,100860.85
2018-12-04T09:51:09.309Z,100853.06
2018-12-04T09:53:36.966Z,100853.23
2018-12-04T09:56:04.537Z,100862.20
2018-12-04T09:58:32.105Z,100865.50
2018-12-04T10:00:59.677Z,100870.48
2018-12-04T10:03:27.483Z,100873.64
2018-12-04T10:05:55.057Z,100878.19
2018-12-04T10:08:22.754Z,100875.86
2018-12-04T10:10:50.409Z,100872.72
2018-12-04T10:13:18.018Z,100877.87
2018-12-04T10:15:45.545Z,100888.53
2018-12-04T10:18:13.166Z,100888.55
2018-12-04T10:20:40.756Z,100888.52
2018-12-04T10:23:08.437Z,100889.17
2018-12-04T10:25:38.028Z,100894.19
2018-12-04T10:28:05.625Z,100897.17
2018-12-04T10:30:33.201Z,100899.84
2018-12-04T10:33:00.860Z,100906.18
2018-12-04T10:35:28.478Z,100921.66
2018-12-04T10:37:56.054Z,100914.83
2018-12-04T10:40:23.913Z,100915.52
2018-12-04T10:42:51.797Z,100916.84
2018-12-04T10:45:19.360Z,100924.98
2018-12-04T10:47:46.930Z,100927.47
2018-12-04T10:50:14.498Z,100930.43
2018-12-04T10:52:42.050Z,100938.26
2018-12-04T10:55:09.685Z,100938.75
2018-12-04T10:57:37.259Z,100945.08
2018-12-04T11:00:10.097Z,100945.58
2018-12-04T11:02:44.540Z,100947.00
2018-12-04T11:05:12.150Z,100951.34
2018-12-04T11:07:39.777Z,100947.34
2018-12-04T11:10:07.331Z,100960.95
2018-12-04T11:12:35.195Z,100961.27
2018-12-04T11:15:02.757Z,100968.30
2018-12-04T11:17:30.329Z,100969.22
2018-12-04T11:19:57.907Z,100985.16
2018-12-04T11:22:25.487Z,100981.31
2018-12-04T11:24:53.123Z,100979.00
2018-12-04T11:27:20.709Z,100975.00
2018-12-04T11:29:48.299Z,100982.00
2018-12-04T11:32:15.893Z,100989.83
2018-12-04T11:34:43.477Z,100991.99
2018-12-04T11:37:11.041Z,100994.84
2018-12-04T11:39:38.987Z,100999.64
2018-12-04T11:42:06.549Z,101014.47
2018-12-04T11:44:34.099Z,101006.82
2018-12-04T11:47:01.721Z,101015.95
2018-12-04T11:49:29.336Z,101023.28
2018-12-04T11:51:56.894Z,101027.31
2018-12-04T11:54:24.762Z,101037.55
2018-12-04T11:56:52.292Z,101037.13
2018-12-04T11:59:19.857Z,101037.30
2018-12-04T12:01:47.398Z,101045.66
2018-12-04T12:04:15.026Z,101047.46
2018-12-04T12:06:42.611Z,101052.91
2018-12-04T12:09:10.154Z,101055.56
2018-12-04T12:11:37.787Z,101067.05
2018-12-04T12:14:05.951Z,101058.60
2018-12-04T12:16:33.538Z,101062.66
2018-12-04T12:19:01.293Z,101061.27
2018-12-04T12:21:28.879Z,101065.97
2018-12-04T12:23:56.419Z,101068.66
2018-12-04T12:26:24.274Z,101070.77
2018-12-04T12:28:51.831Z,101086.09
2018-12-04T12:31:19.417Z,101083.98
2018-12-04T12:33:47.374Z,101078.99
2018-12-04T12:36:15.062Z,101088.53
2018-12-04T12:38:42.623Z,101094.17
2018-12-04T12:41:10.235Z,101088.80
2018-12-04T12:43:37.836Z,101103.63
2018-12-04T12:46:06.008Z,101090.14
2018-12-04T12:48:33.579Z,101085.80
2018-12-04T12:51:01.201Z,101095.76
2018-12-04T12:53:28.793Z,101097.03
2018-12-04T12:55:56.347Z,101095.70
2018-12-04T12:58:23.994Z,101110.30
2018-12-04T13:00:51.615Z,101115.28
2018-12-04T13:03:19.178Z,101112.56
2018-12-04T13:05:47.515Z,101141.83
2018-12-04T13:08:15.339Z,101119.55
2018-12-04T13:10:42.875Z,101128.37
2018-12-04T13:13:10.489Z,101125.22
2018-12-04T13:15:38.145Z,101130.35
2018-12-04T13:18:05.768Z,101142.17
2018-12-04T13:20:33.353Z,101170.03
2018-12-04T13:23:00.952Z,101175.33
2018-12-04T13:25:28.971Z,101182.35
2018-12-04T13:27:56.740Z,101175.36
2018-12-04T13:30:24.297Z,101184.78
2018-12-04T13:32:51.874Z,101185.27
2018-12-04T13:35:19.467Z,101188.67
2018-12-04T13:37:47.185Z,101202.34
2018-12-04T13:40:15.086Z,101206.96
2018-12-04T13:42:42.979Z,101212.91
2018-12-04T13:45:10.572Z,101206.27
2018-12-04T13:47:38.156Z,101216.40
2018-12-04T13:50:06.006Z,101217.20
2018-12-04T13:52:33.553Z,101214.58
2018-12-04T13:55:01.473Z,101228.17
2018-12-04T13:57:29.437Z,101228.31
2018-12-04T13:59:57.029Z,101233.14
2018-12-04T14:02:25.400Z,101233.17
2018-12-04T14:04:53.092Z,101249.91
2018-12-04T14:07:20.677Z,101250.68
2018-12-04T14:09:48.355Z,101259.00
2018-12-04T14:12:16.080Z,101261.30
2018-12-04T14:14:43.632Z,101271.30
2018-12-04T14:17:11.206Z,101277.06
2018-12-04T14:19:38.970Z,101280.48
2018-12-04T14:22:06.752Z,101279.59
2018-12-04T14:24:34.322Z,101292.73
2018-12-04T14:27:01.925Z,101299.02
2018-12-04T14:29:29.508Z,101300.09
2018-12-04T14:31:57.253Z,101305.80
2018-12-04T14:34:24.874Z,101313.20
2018-12-04T14:36:52.523Z,101319.70
2018-12-04T14:39:20.123Z,101321.52
2018-12-04T14:41:47.696Z,101326.70
2018-12-04T14:44:15.402Z,101327.77
2018-12-04T14:46:43.032Z,101342.19
2018-12-04T14:49:10.695Z,101350.15
2018-12-04T14:51:38.314Z,101360.33
2018-12-04T14:54:05.933Z,101366.42
2018-12-04T14:56:33.490Z,101363.69
2018-12-04T14:59:01.110Z,101370.23
2018-12-04T15:01:28.828Z,101377.50
2018-12-04T15:03:56.557Z,101373.41
2018-12-04T15:06:24.189Z,101375.77
2018-12-04T15:08:52.082Z,101383.05
2018-12-04T15:11:20.406Z,101392.12
2018-12-04T15:13:48.058Z,101395.61
2018-12-04T15:16:15.642Z,101398.27
2018-12-04T15:18:43.254Z,101408.66
2018-12-04T15:21:11.335Z,101419.91
2018-12-04T15:23:38.943Z,101416.55
2018-12-04T15:26:06.703Z,101424.31
2018-12-04T15:28:34.391Z,101428.48
2018-12-04T15:31:03.464Z,101437.16
2018-12-04T15:33:31.367Z,101436.52
2018-12-04T15:35:58.932Z,101440.56
2018-12-04T15:38:26.662Z,101444.59
2018-12-04T15:40:54.367Z,101448.52
2018-12-04T15:43:22.022Z,101451.20
2018-12-04T15:45:49.653Z,101455.17
2018-12-04T15:48:17.364Z,101464.53
2018-12-04T15:50:45.007Z,101463.48
2018-12-04T15:53:12.612Z,101463.69
2018-12-04T15:55:40.552Z,101473.45
2018-12-04T15:58:08.163Z,101476.46
2018-12-04T16:00:35.983Z,101477.91
2018-12-04T16:03:03.644Z,101486.16
2018-12-04T16:05:31.268Z,101487.69
2018-12-04T16:07:58.832Z,101495.92
2018-12-04T16:10:26.527Z,101501.23
2018-12-04T16:12:54.150Z,101507.27
2018-12-04T16:15:21.717Z,101514.92
2018-12-04T16:17:49.283Z,101510.70
2018-12-04T16:20:16.858Z,101508.78
2018-12-04T16:22:44.473Z,101516.13
2018-12-04T16:25:12.133Z,101522.75
2018-12-04T16:27:39.802Z,101528.19
2018-12-04T16:30:07.573Z,101535.34
2018-12-04T16:32:35.216Z,101544.98
2018-12-04T16:35:02.764Z,101549.14
2018-12-04T16:37:30.318Z,101562.03
2018-12-04T16:39:57.906Z,101565.93
2018-12-04T16:42:25.804Z,101572.45
2018-12-04T16:44:53.463Z,101578.16
2018-12-04T16:47:21.491Z,101577.47
2018-12-04T16:49:49.219Z,101583.25
2018-12-04T16:52:16.816Z,101584.82
2018-12-04T16:54:44.349Z,101589.87
2018-12-04T16:57:12.117Z,101597.26
2018-12-04T16:59:40.013Z,101600.98
2018-12-04T17:02:07.567Z,101609.80
2018-12-04T17:04:35.233Z,101616.48
2018-12-04T17:07:03.038Z,101618.18
2018-12-04T17:09:30.627Z,101617.09
2018-12-04T17:11:58.236Z,101619.47
2018-12-04T17:14:25.803Z,101624.68
2018-12-04T17:16:53.396Z,101630.22
2018-12-04T17:19:21.365Z,101635.04
2018-12-04T17:21:48.945Z,101634.19
2018-12-04T17:24:16.524Z,101638.44
2018-12-04T17:26:44.168Z,101643.25
2018-12-04T17:29:11.811Z,101648.19
2018-12-04T17:31:39.369Z,101650.95
2018-12-04T17:34:06.968Z,101650.86
2018-12-04T17:36:34.557Z,101651.84
2018-12-04T17:39:02.112Z,101655.34
2018-12-04T17:41:29.736Z,101661.23
2018-12-04T17:43:57.279Z,101662.19
2018-12-04T17:46:24.849Z,101664.15
2018-12-04T17:48:52.460Z,101666.56
2018-12-04T17:51:20.061Z,101670.43
2018-12-04T17:53:47.780Z,101672.12
2018-12-04T17:56:15.410Z,101677.87
2018-12-04T17:58:43.152Z,101676.92
2018-12-04T18:01:10.748Z,101680.52
2018-12-04T18:03:38.380Z,101677.27
2018-12-04T18:06:05.936Z,101682.93
2018-12-04T18:08:33.871Z,101689.44
2018-12-04T18:11:01.424Z,101684.01
2018-12-04T18:13:29.005Z,101689.44
2018-12-04T18:15:56.841Z,101693.04
2018-12-04T18:18:24.495Z,101701.45
2018-12-04T18:20:52.117Z,101709.13
2018-12-04T18:23:19.732Z,101711.30
2018-12-04T18:25:47.381Z,101713.80
2018-12-04T18:28:14.997Z,101711.05
2018-12-04T18:30:42.553Z,101710.45
2018-12-04T18:33:10.153Z,101721.30
2018-12-04T18:35:37.846Z,101726.22
2018-12-04T18:38:05.438Z,101720.67
2018-12-04T18:40:33.000Z,101722.58
2018-12-04T18:43:00.557Z,101728.83
2018-12-04T18:45:28.182Z,101732.67
2018-12-04T18:47:56.157Z,101731.25
2018-12-04T18:50:23.852Z,101725.70
2018-12-04T18:52:51.461Z,101727.28
2018-12-04T18:55:21.043Z,101729.66
2018-12-04T18:57:48.702Z,101733.16
2018-12-04T19:00:16.408Z,101734.84
2018-12-04T19:02:44.047Z,101740.93
2018-12-04T19:05:11.683Z,101744.20
2018-12-04T19:07:39.344Z,101744.69
2018-12-04T19:10:07.042Z,101754.20
2018-12-04T19:12:34.981Z,101753.31
2018-12-04T19:15:02.590Z,101753.55
2018-12-04T19:17:30.281Z,101756.48
2018-12-04T19:19:57.967Z,101761.51
2018-12-04T19:22:25.950Z,101764.47
2018-12-04T19:24:53.679Z,101765.77
2018-12-04T19:27:21.339Z,101768.69
2018-12-04T19:29:48.890Z,101775.55
2018-12-04T19:32:16.532Z,101773.24
2018-12-04T19:34:44.264Z,101776.72
2018-12-04T19:37:11.890Z,101784.66
2018-12-04T19:39:39.485Z,101793.42
2018-12-04T19:42:07.145Z,101797.48
2018-12-04T19:44:35.253Z,101800.73
2018-12-04T19:47:02.972Z,101800.88
2018-12-04T19:49:31.465Z,101803.13
2018-12-04T19:51:59.087Z,101809.08
2018-12-04T19:54:26.647Z,101807.26
2018-12-04T19:56:54.435Z,101816.27
2018-12-04T19:59:21.985Z,101819.45
2018-12-04T20:01:49.545Z,101823.89
2018-12-04T20:04:17.135Z,101830.95
2018-12-04T20:06:44.758Z,101836.16
2018-12-04T20:09:12.388Z,101839.56
2018-12-04T20:11:40.039Z,101843.39
2018-12-04T20:14:07.586Z,101844.88
2018-12-04T20:16:35.168Z,101845.61
2018-12-04T20:19:02.767Z,101858.33
2018-12-04T20:21:30.526Z,101863.38
2018-12-04T20:23:58.116Z,101866.11
2018-12-04T20:26:26.371Z,101870.16
2018-12-04T20:28:54.036Z,101873.38
2018-12-04T20:31:21.580Z,101873.11
2018-12-04T20:33:49.178Z,101872.05
2018-12-04T20:36:16.784Z,101878.56
2018-12-04T20:38:44.879Z,101872.23
2018-12-04T20:41:12.527Z,101875.15
2018-12-04T20:43:40.103Z,101885.62
2018-12-04T20:46:07.987Z,101890.84
2018-12-04T20:48:35.584Z,101883.89
2018-12-04T20:51:03.137Z,101898.06
2018-12-04T20:53:30.685Z,101900.56
2018-12-04T20:55:58.253Z,101911.14
2018-12-04T20:58:25.917Z,101915.88
2018-12-04T21:00:53.556Z,101909.70
2018-12-04T21:03:21.132Z,101908.58
2018-12-04T21:05:48.772Z,101917.47
2018-12-04T21:08:16.386Z,101920.31
2018-12-04T21:10:44.005Z,101921.00
2018-12-04T21:13:14.664Z,101919.03
2018-12-04T21:15:41.260Z,101919.67
2018-12-04T21:18:08.825Z,101926.05
2018-12-04T21:20:36.502Z,101927.36
2018-12-04T21:23:04.162Z,101933.53
2018-12-04T21:25:31.724Z,101934.54
2018-12-04T21:28:05.843Z,101950.50
2018-12-04T21:30:39.339Z,101948.70
2018-12-04T21:33:12.529Z,101957.38
2018-12-04T21:35:46.596Z,101963.25
2018-12-04T21:38:19.740Z,101960.53
2018-12-04T21:41:07.987Z,101963.04
2018-12-04T21:43:41.909Z,101973.67
2018-12-04T21:46:11.511Z,101971.72
2018-12-04T21:48:39.367Z,101975.58
2018-12-04T21:51:06.982Z,101982.15
2018-12-04T21:53:34.572Z,101977.40
2018-12-04T21:56:02.264Z,101977.74
2018-12-04T21:58:30.128Z,101983.57
2018-12-04T22:00:57.911Z,101984.99
2018-12-04T22:03:25.519Z,101987.91
2018-12-04T22:05:53.427Z,101996.55
2018-12-04T22:08:21.189Z,102009.87
2018-12-04T22:10:48.803Z,102009.78
2018-12-04T22:13:16.711Z,102011.06
2018-12-04T22:15:44.599Z,102018.34
2018-12-04T22:18:12.561Z,102019.28
2018-12-04T22:20:40.279Z,102024.84
2018-12-04T22:23:07.894Z,102021.35
2018-12-04T22:25:35.460Z,102026.22
2018-12-04T22:28:03.083Z,102032.57
2018-12-04T22:30:30.731Z,102028.11
2018-12-04T22:32:58.292Z,102035.89
2018-12-04T22:35:25.930Z,102033.30
2018-12-04T22:37:53.474Z,102037.50
2018-12-04T22:40:21.124Z,102037.88
2018-12-04T22:42:48.764Z,102040.65
2018-12-04T22:45:22.175Z,102034.29
2018-12-04T22:47:49.787Z,102034.29
2018-12-04T22:50:17.356Z,102036.83
2018-12-04T22:52:44.961Z,102042.11
2018-12-04T22:55:12.517Z,102035.36
2018-12-04T22:57:40.384Z,102040.80
2018-12-04T23:00:13.545Z,102034.19
2018-12-04T23:02:41.142Z,102038.20
2018-12-04T23:05:08.748Z,102032.81
2018-12-04T23:07:36.310Z,102038.72
2018-12-04T23:10:06.363Z,102040.27
2018-12-04T23:12:34.020Z,102038.95
2018-12-04T23:15:01.734Z,102037.55
2018-12-04T23:17:29.369Z,102039.28
2018-12-04T23:19:57.012Z,102050.70
2018-12-04T23:22:25.310Z,102060.22
2018-12-04T23:24:52.878Z,102058.28
2018-12-04T23:27:20.441Z,102060.23
2018-12-04T23:29:48.017Z,102054.11
2018-12-04T23:32:15.571Z,102057.13
2018-12-04T23:34:43.176Z,102051.94
2018-12-04T23:37:10.761Z,102054.77
2018-12-04T23:39:38.444Z,102061.94
2018-12-04T23:42:06.324Z,102063.82
2018-12-04T23:44:33.929Z,102057.75
2018-12-04T23:47:01.456Z,102064.70
2018-12-04T23:49:29.050Z,102065.52
2018-12-04T23:51:56.628Z,102061.47
2018-12-04T23:54:24.169Z,102066.55
2018-12-04T23:56:51.781Z,102067.56
2018-12-04T23:59:19.633Z,102075.77
